Aviation Digital Data Service (ADDS)

Output produced by METARs form (1423 UTC 10 July 2020)
found at http://www.aviationweather.gov/metar/data/
 
KGTR 101356Z 23003KT 10SM CLR 28/26 A2999 RMK AO2 SLP160 T02780256 PNO $
KGTR 101256Z 00000KT 10SM CLR 25/24 A2998 RMK AO2 SLP158 T02500244 PNO $
KGTR 101156Z 00000KT 10SM CLR 23/23 A2998 RMK AO2 SLP157 6//// 7//// T02280228 10228 20217 53009 PNO $
KGTR 101056Z 00000KT 9SM CLR 22/22 A2997 RMK AO2 SLP154 T02170217 PNO $
KGTR 100956Z AUTO 24003KT 10SM CLR 22/22 A2995 RMK AO2 SLP147 T02220222 PNO $
KGTR 100856Z AUTO 00000KT 10SM FEW035 22/22 A2995 RMK AO2 SLP147 6//// T02220222 58003 PNO $
KGTR 100756Z AUTO 21003KT 10SM BKN041 22/22 A2995 RMK AO2 SLP147 T02220222 PNO $
KGTR 100656Z AUTO 23003KT 10SM SCT039 22/22 A2996 RMK AO2 SLP151 T02170217 PNO $
KGTR 100556Z AUTO 00000KT 10SM CLR 23/23 A2996 RMK AO2 SLP150 6//// T02280228 10283 20222 403220222 53009 PNO $
KGTR 100456Z AUTO 00000KT 10SM CLR 23/23 A2995 RMK AO2 SLP146 T02280228 PNO $
KGTR 100356Z AUTO 00000KT 10SM CLR 23/23 A2994 RMK AO2 SLP143 T02330228 PNO $
KGTR 100256Z AUTO 25003KT 8SM CLR 24/23 A2993 RMK AO2 SLP141 6//// T02390228 53005 PNO $
KGTR 100156Z AUTO 16005KT 10SM CLR 24/23 A2988 RMK AO2 SLP121 T02440228 PNO $
KGTR 100056Z VRB03KT 10SM CLR 27/23 A2990 RMK AO2 PRESFR SLP129 T02670233 PNO $
KGTR 092356Z 23006KT 10SM CLR 28/26 A2992 RMK AO2 LTG DSNT W SLP136 6//// T02830256 10322 20239 55005 PNO $
KGTR 092256Z VRB03KT 10SM CLR 29/26 A2990 RMK AO2 SLP131 T02890256 PNO $
KGTR 092156Z 00000KT 10SM CLR 26/23 A2992 RMK AO2 LTG DSNT SE AND S TSE37RAE41 SLP137 T02560233 PNO $
KGTR 092143Z 00000KT 10SM CLR 24/24 A2992 RMK AO2 LTG DSNT ALQDS TSE37RAE41 PNO $
KGTR 092056Z 21009KT 10SM -TSRA SCT039 BKN050 OVC090 25/23 A2993 RMK AO2 LTG DSNT ALQDS TSB14RAB20 SLP141 6//// T02500233 55009 PNO $
KGTR 092020Z 21006KT 8SM -TSRA SCT042 29/26 A2991 RMK AO2 LTG DSNT W TSB14RAB20 P0000
KGTR 091956Z 00000KT 10SM FEW080 31/25 A2991 RMK AO2 SLP134 T03110250
KGTR 091856Z 00000KT 10SM FEW027 31/24 A2994 RMK AO2 SLP141 T03110244
KGTR 091756Z VRB03KT 10SM FEW019 SCT048 31/26 A2996 RMK AO2 SLP150 T03060256 10306 20239 58001
KGTR 091742Z 00000KT 10SM SCT020 BKN036 BKN046 29/26 A2996 RMK AO2
KGTR 091730Z VRB04KT 10SM BKN020 BKN044 29/26 A2996 RMK AO2
KGTR 091656Z 00000KT 10SM FEW012 28/25 A2996 RMK AO2 SLP152 T02830250
KGTR 091629Z 20005KT 10SM SCT012 BKN042 28/26 A2997 RMK AO2
KGTR 091613Z VRB03KT 10SM SCT009 BKN014 OVC040 27/25 A2997 RMK AO2
KGTR 091556Z 20004KT 10SM BKN009 OVC014 26/25 A2997 RMK AO2 SLP155 T02610250
KGTR 091521Z 00000KT 10SM OVC010 26/25 A2996 RMK AO2
KGTR 091456Z 22003KT 10SM OVC008 26/25 A2996 RMK AO2 SLP151 T02560250 51002
KGTR 091356Z 00000KT 10SM OVC008 25/24 A2996 RMK AO2 SLP150 T02500244
KGTR 091256Z 22005KT 10SM OVC006 24/24 A2996 RMK AO2 CIG 004V009 SLP151 T02440244
KGTR 091156Z 20004KT 10SM OVC008 24/24 A2995 RMK AO2 RAE05 SLP148 P0000 60000 T02390239 10239 20228 51014
KGTR 091110Z 00000KT 10SM FEW006 BKN010 OVC018 23/23 A2995 RMK AO2 RAE05 P0000
KGTR 091056Z 00000KT 4SM -RA BR BKN008 BKN016 OVC040 23/23 A2995 RMK AO2 RAB37 CIG 005V011 SLP146 P0000 T02330233
KGTR 091047Z 00000KT 4SM -RA BR BKN010 BKN017 OVC023 23/23 A2994 RMK AO2 RAB37 CIG 005V011 P0000
KGTR 091027Z AUTO 00000KT 10SM BKN023 OVC070 23/23 A2993 RMK AO2
KGTR 090956Z AUTO 00000KT 10SM FEW030 OVC070 23/23 A2993 RMK AO2 SLP138 T02330233
KGTR 090856Z AUTO 18003KT 10SM FEW035 BKN048 OVC080 23/23 A2991 RMK AO2 SLP134 T02330233 55004
KGTR 090756Z AUTO 19003KT 9SM SCT029 OVC060 23/23 A2991 RMK AO2 SLP134 T02280228
KGTR 090724Z AUTO 18003KT 9SM FEW022 BKN027 23/23 A2991 RMK AO2
KGTR 090656Z AUTO 16003KT 10SM SCT024 BKN060 23/23 A2991 RMK AO2 SLP133 T02330233
KGTR 090617Z AUTO 17003KT 10SM FEW003 BKN024 23/23 A2992 RMK AO2
KGTR 090609Z AUTO 00000KT 10SM SCT003 SCT024 23/23 A2993 RMK AO2
KGTR 090556Z AUTO 17004KT 10SM CLR 23/23 A2993 RMK AO2 SLP138 T02280228 10261 20228 402890222 58005
KGTR 090456Z AUTO 18004KT 10SM CLR 23/23 A2994 RMK AO2 SLP142 T02330233
KGTR 090356Z AUTO 16003KT 10SM CLR 23/23 A2994 RMK AO2 SLP144 T02330233
KGTR 090256Z AUTO 16004KT 10SM FEW046 23/23 A2994 RMK AO2 SLP143 T02330233 51009
KGTR 090209Z AUTO 00000KT 7SM SCT014 BKN036 BKN043 24/24 A2994 RMK AO2
KGTR 090156Z AUTO 00000KT 10SM BKN014 24/24 A2994 RMK AO2 SLP144 T02440239
KGTR 090056Z AUTO 00000KT 10SM CLR 26/24 A2992 RMK AO2 SLP137 T02560244
KGTR 082356Z 19005KT 10SM CLR 26/24 A2991 RMK AO2 SLP134 60000 T02610244 10278 20228 58010
KGTR 082256Z 20006KT 10SM CLR 26/24 A2994 RMK AO2 SLP142 T02560239
KGTR 082156Z 18007KT 10SM CLR 26/24 A2994 RMK AO2 SLP143 T02610239
KGTR 082056Z 26005KT 10SM FEW090 26/24 A2995 RMK AO2 RAE29 SLP145 P0000 60000 T02610244 58008
KGTR 081956Z 22009KT 10SM -RA FEW055 OVC070 23/23 A2996 RMK AO2 SLP149 P0000 T02280228
KGTR 081939Z 23008KT 10SM -RA FEW009 SCT020 OVC080 24/24 A2995 RMK AO2 P0000
KGTR 081920Z 28005KT 10SM -RA SCT007 BKN018 OVC070 24/24 A2996 RMK AO2 P0000
KGTR 081856Z 24003KT 10SM -RA FEW050 BKN070 OVC095 26/24 A2997 RMK AO2 LTG DSNT S TSB19E45RAB36 SLP152 P0000 T02610244
KGTR 081851Z 24003KT 10SM -RA FEW050 BKN070 OVC100 26/25 A2997 RMK AO2 LTG DSNT S TSB19E45RAB36 P0000
KGTR 081825Z 00000KT 10SM VCTS FEW070 OVC090 27/24 A2998 RMK AO2 LTG DSNT S AND SW TSB19
KGTR 081756Z 00000KT 10SM OVC085 28/24 A2999 RMK AO2 LTG DSNT S-W SLP160 T02780244 10289 20233 58009
KGTR 081656Z 00000KT 10SM BKN090 28/23 A3000 RMK AO2 LTG DSNT W SLP164 T02780228
KGTR 081556Z 00000KT 10SM SCT095 27/24 A3002 RMK AO2 SLP171 T02720239
KGTR 081456Z 26003KT 10SM FEW120 26/23 A3001 RMK AO2 SLP169 T02610233 53004
KGTR 081356Z 00000KT 10SM BKN110 24/24 A3001 RMK AO2 SLP166 T02440239
KGTR 081256Z 00000KT 10SM OVC100 24/23 A3000 RMK AO2 SLP164 T02390233
KGTR 081156Z 00000KT 10SM OVC100 23/23 A3000 RMK AO2 SLP164 T02330233 10233 20222 53006
KGTR 081056Z 00000KT 10SM OVC095 23/23 A2999 RMK AO2 SLP161 T02330233
KGTR 080956Z AUTO 00000KT 10SM BKN095 23/23 A2998 RMK AO2 SLP158 T02280228
KGTR 080856Z AUTO 18003KT 10SM FEW120 23/23 A2998 RMK AO2 SLP158 T02280228 53001
KGTR 080756Z AUTO 20003KT 10SM SCT120 23/23 A2998 RMK AO2 SLP156 T02280228
KGTR 080656Z AUTO 00000KT 10SM CLR 23/23 A2997 RMK AO2 SLP155 T02280228
KGTR 080556Z AUTO 00000KT 10SM CLR 22/22 A2998 RMK AO2 SLP157 60000 T02220222 10278 20222 403280217 50006
KGTR 080456Z AUTO 24003KT 10SM SCT110 22/22 A2999 RMK AO2 SLP159 T02220222
KGTR 080356Z AUTO 10003KT 10SM CLR 23/22 A2998 RMK AO2 SLP158 T02280222
KGTR 080256Z AUTO 00000KT 10SM CLR 22/22 A2996 RMK AO2 RAE0157 SLP151 60000 T02220217 50003
KGTR 080156Z AUTO 20006KT 10SM -RA FEW037 22/22 A2998 RMK AO2 SLP158 P0000 T02220222
KGTR 080056Z AUTO 27004KT 10SM -RA OVC085 23/23 A2998 RMK AO2 LTG DSNT S TSE29B38E53RAB04 SLP158 P0000 T02280228
KGTR 080044Z 27008KT 10SM VCTS -RA SCT075 OVC095 23/23 A2998 RMK AO2 LTG DSNT SE AND S TSE29B38RAB04 P0000
KGTR 080035Z 26006KT 10SM -RA BKN085 OVC110 23/22 A2999 RMK AO2 LTG DSNT SE AND S TSE29RAB04 P0000
KGTR 072356Z 32009KT 8SM VCTS FEW043 SCT055 BKN080 28/25 A2996 RMK AO2 LTG DSNT ALQDS TSB02E34B48 SLP149 T02780250 10328 20278 53006
KGTR 072354Z 33007KT 10SM VCTS SCT043 SCT055 BKN080 28/25 A2995 RMK AO2 LTG DSNT ALQDS TSB02E34B48
KGTR 072340Z 00000KT 10SM BKN041 BKN050 29/26 A2995 RMK AO2 LTG DSNT ALQDS TSB02E34
KGTR 072308Z 36003KT 10SM TS CLR 29/25 A2994 RMK AO2 LTG DSNT S-NW TSB02
KGTR 072256Z 01003KT 10SM CLR 30/25 A2993 RMK AO2 LTG DSNT S-NW SLP140 T03000250
KGTR 072156Z 01005KT 10SM CLR 31/25 A2994 RMK AO2 LTG DSNT N SLP142 T03110250
KGTR 072056Z 03011KT 10SM BKN038 31/24 A2995 RMK AO2 SLP145 T03110244 56018
KGTR 071956Z VRB04KT 10SM SCT036 SCT046 32/25 A2995 RMK AO2 SLP147 T03220250
KGTR 071856Z 34003KT 10SM BKN034 31/25 A2998 RMK AO2 SLP157 T03110250
KGTR 071756Z VRB06KT 10SM FEW030 SCT035 SCT049 32/24 A3000 RMK AO2 SLP164 T03170244 10322 20228 58008
KGTR 071656Z VRB03KT 10SM FEW021 31/24 A3002 RMK AO2 SLP169 T03110244
KGTR 071642Z 05005KT 10SM SCT021 31/24 A3002 RMK AO2
KGTR 071633Z 33003KT 10SM BKN021 29/25 A3002 RMK AO2
KGTR 071556Z VRB03KT 10SM FEW023 28/24 A3003 RMK AO2 SLP173 T02830244
KGTR 071456Z 32003KT 10SM FEW014 28/24 A3003 RMK AO2 SLP172 T02830244 51016
KGTR 101120Z 1012/1112 31009KT P6SM SCT250